sensor_id;sensor_type;location;lat;lon;timestamp;P1;durP1;ratioP1;P2;durP2;ratioP2
15151;SDS011;7676;50.900;6.234;2023-04-19T00:02:08;18.73;;;16.37;;
15151;SDS011;7676;50.900;6.234;2023-04-19T00:17:10;18.17;;;16.27;;
15151;SDS011;7676;50.900;6.234;2023-04-19T00:32:14;19.03;;;16.67;;
15151;SDS011;7676;50.900;6.234;2023-04-19T00:47:17;18.30;;;16.33;;
15151;SDS011;7676;50.900;6.234;2023-04-19T01:02:40;19.53;;;17.53;;
15151;SDS011;7676;50.900;6.234;2023-04-19T01:17:43;18.53;;;16.63;;
15151;SDS011;7676;50.900;6.234;2023-04-19T01:32:47;19.20;;;17.20;;
15151;SDS011;7676;50.900;6.234;2023-04-19T01:47:50;20.07;;;17.97;;
15151;SDS011;7676;50.900;6.234;2023-04-19T02:02:53;19.60;;;17.57;;
15151;SDS011;7676;50.900;6.234;2023-04-19T02:17:56;20.27;;;18.07;;
15151;SDS011;7676;50.900;6.234;2023-04-19T02:33:05;20.47;;;18.27;;
15151;SDS011;7676;50.900;6.234;2023-04-19T02:48:08;18.97;;;16.93;;
15151;SDS011;7676;50.900;6.234;2023-04-19T03:03:25;21.90;;;19.60;;
15151;SDS011;7676;50.900;6.234;2023-04-19T03:18:30;20.53;;;18.33;;
15151;SDS011;7676;50.900;6.234;2023-04-19T03:33:36;21.53;;;19.17;;
15151;SDS011;7676;50.900;6.234;2023-04-19T03:48:39;20.33;;;18.17;;
15151;SDS011;7676;50.900;6.234;2023-04-19T04:03:42;21.00;;;18.73;;
15151;SDS011;7676;50.900;6.234;2023-04-19T04:18:47;19.17;;;17.17;;
15151;SDS011;7676;50.900;6.234;2023-04-19T04:33:50;18.83;;;16.83;;
15151;SDS011;7676;50.900;6.234;2023-04-19T04:49:16;17.73;;;15.80;;
15151;SDS011;7676;50.900;6.234;2023-04-19T05:04:20;19.30;;;17.23;;
15151;SDS011;7676;50.900;6.234;2023-04-19T05:19:24;18.40;;;16.50;;
15151;SDS011;7676;50.900;6.234;2023-04-19T05:34:35;19.03;;;17.20;;
15151;SDS011;7676;50.900;6.234;2023-04-19T05:49:40;17.57;;;15.60;;
15151;SDS011;7676;50.900;6.234;2023-04-19T06:04:52;17.20;;;15.43;;
15151;SDS011;7676;50.900;6.234;2023-04-19T06:19:55;19.30;;;16.47;;
15151;SDS011;7676;50.900;6.234;2023-04-19T06:35:08;16.00;;;13.63;;
15151;SDS011;7676;50.900;6.234;2023-04-19T06:50:11;13.67;;;11.83;;
15151;SDS011;7676;50.900;6.234;2023-04-19T07:05:14;11.87;;;9.50;;
15151;SDS011;7676;50.900;6.234;2023-04-19T07:20:19;9.30;;;7.50;;
15151;SDS011;7676;50.900;6.234;2023-04-19T07:35:42;8.43;;;7.23;;
15151;SDS011;7676;50.900;6.234;2023-04-19T07:51:11;9.27;;;7.33;;
15151;SDS011;7676;50.900;6.234;2023-04-19T08:06:16;8.67;;;6.80;;
15151;SDS011;7676;50.900;6.234;2023-04-19T08:21:22;8.13;;;6.60;;
15151;SDS011;7676;50.900;6.234;2023-04-19T08:36:59;7.10;;;6.20;;
15151;SDS011;7676;50.900;6.234;2023-04-19T08:52:09;8.43;;;7.17;;
15151;SDS011;7676;50.900;6.234;2023-04-19T09:07:24;9.00;;;7.37;;
15151;SDS011;7676;50.900;6.234;2023-04-19T09:22:27;8.60;;;7.37;;
15151;SDS011;7676;50.900;6.234;2023-04-19T09:37:31;8.37;;;7.03;;
15151;SDS011;7676;50.900;6.234;2023-04-19T09:53:09;9.80;;;6.70;;
15151;SDS011;7676;50.900;6.234;2023-04-19T10:08:14;10.20;;;5.63;;
15151;SDS011;7676;50.900;6.234;2023-04-19T10:23:18;6.80;;;4.93;;
15151;SDS011;7676;50.900;6.234;2023-04-19T10:38:40;8.50;;;4.30;;
15151;SDS011;7676;50.900;6.234;2023-04-19T10:54:08;6.70;;;4.63;;
15151;SDS011;7676;50.900;6.234;2023-04-19T11:09:48;6.87;;;4.13;;
15151;SDS011;7676;50.900;6.234;2023-04-19T11:24:54;4.80;;;3.40;;
15151;SDS011;7676;50.900;6.234;2023-04-19T11:40:06;5.20;;;4.10;;
15151;SDS011;7676;50.900;6.234;2023-04-19T11:55:18;5.27;;;3.40;;
15151;SDS011;7676;50.900;6.234;2023-04-19T12:10:33;3.20;;;2.67;;
15151;SDS011;7676;50.900;6.234;2023-04-19T12:25:36;3.67;;;2.33;;
15151;SDS011;7676;50.900;6.234;2023-04-19T12:40:47;4.10;;;2.67;;
15151;SDS011;7676;50.900;6.234;2023-04-19T12:55:50;4.33;;;2.90;;
15151;SDS011;7676;50.900;6.234;2023-04-19T13:10:52;7.57;;;3.00;;
15151;SDS011;7676;50.900;6.234;2023-04-19T13:26:16;4.30;;;2.60;;
15151;SDS011;7676;50.900;6.234;2023-04-19T13:41:39;4.93;;;2.57;;
15151;SDS011;7676;50.900;6.234;2023-04-19T13:56:44;3.93;;;2.90;;
15151;SDS011;7676;50.900;6.234;2023-04-19T14:11:47;4.47;;;2.93;;
15151;SDS011;7676;50.900;6.234;2023-04-19T14:26:53;3.93;;;3.20;;
15151;SDS011;7676;50.900;6.234;2023-04-19T14:42:12;5.50;;;3.40;;
15151;SDS011;7676;50.900;6.234;2023-04-19T14:57:15;6.63;;;3.83;;
15151;SDS011;7676;50.900;6.234;2023-04-19T15:12:38;4.67;;;3.10;;
15151;SDS011;7676;50.900;6.234;2023-04-19T15:27:41;3.93;;;3.50;;
15151;SDS011;7676;50.900;6.234;2023-04-19T15:42:53;6.63;;;4.40;;
15151;SDS011;7676;50.900;6.234;2023-04-19T15:58:01;7.03;;;4.80;;
15151;SDS011;7676;50.900;6.234;2023-04-19T16:13:05;5.10;;;4.47;;
15151;SDS011;7676;50.900;6.234;2023-04-19T16:28:08;5.33;;;3.80;;
15151;SDS011;7676;50.900;6.234;2023-04-19T16:43:10;3.60;;;3.20;;
15151;SDS011;7676;50.900;6.234;2023-04-19T16:58:13;5.47;;;3.00;;
15151;SDS011;7676;50.900;6.234;2023-04-19T17:13:16;3.27;;;2.97;;
15151;SDS011;7676;50.900;6.234;2023-04-19T17:28:22;3.10;;;2.70;;
15151;SDS011;7676;50.900;6.234;2023-04-19T17:43:28;3.30;;;2.70;;
15151;SDS011;7676;50.900;6.234;2023-04-19T17:58:30;3.07;;;2.57;;
15151;SDS011;7676;50.900;6.234;2023-04-19T18:13:36;4.30;;;2.93;;
15151;SDS011;7676;50.900;6.234;2023-04-19T18:28:42;4.17;;;2.40;;
15151;SDS011;7676;50.900;6.234;2023-04-19T18:43:53;4.20;;;2.57;;
15151;SDS011;7676;50.900;6.234;2023-04-19T18:59:20;6.23;;;2.43;;
15151;SDS011;7676;50.900;6.234;2023-04-19T19:14:37;5.33;;;2.70;;
15151;SDS011;7676;50.900;6.234;2023-04-19T19:29:53;4.33;;;2.40;;
15151;SDS011;7676;50.900;6.234;2023-04-19T19:45:03;3.57;;;2.90;;
15151;SDS011;7676;50.900;6.234;2023-04-19T20:00:46;2.97;;;2.67;;
15151;SDS011;7676;50.900;6.234;2023-04-19T20:16:13;3.47;;;2.70;;
15151;SDS011;7676;50.900;6.234;2023-04-19T20:31:37;4.30;;;3.10;;
15151;SDS011;7676;50.900;6.234;2023-04-19T20:46:45;4.03;;;3.13;;
15151;SDS011;7676;50.900;6.234;2023-04-19T21:01:50;4.30;;;3.13;;
15151;SDS011;7676;50.900;6.234;2023-04-19T21:16:56;4.97;;;3.30;;
15151;SDS011;7676;50.900;6.234;2023-04-19T21:32:15;4.30;;;3.90;;
15151;SDS011;7676;50.900;6.234;2023-04-19T21:47:18;5.00;;;4.07;;
15151;SDS011;7676;50.900;6.234;2023-04-19T22:02:21;5.63;;;3.90;;
15151;SDS011;7676;50.900;6.234;2023-04-19T22:17:44;5.27;;;3.80;;
15151;SDS011;7676;50.900;6.234;2023-04-19T22:32:47;5.77;;;3.97;;
15151;SDS011;7676;50.900;6.234;2023-04-19T22:47:51;5.27;;;4.40;;
15151;SDS011;7676;50.900;6.234;2023-04-19T23:02:53;5.20;;;4.40;;
15151;SDS011;7676;50.900;6.234;2023-04-19T23:17:57;5.73;;;4.70;;
15151;SDS011;7676;50.900;6.234;2023-04-19T23:33:00;5.30;;;4.10;;
15151;SDS011;7676;50.900;6.234;2023-04-19T23:48:23;5.93;;;4.40;;
